Time;durP1;ratioP1;P1;durP2;ratioP2;P2;SDS_P1;SDS_P2;PMS_P1;PMS_P2;Temp;Humidity;BMP_temperature;BMP_pressure;BME280_temperature;BME280_humidity;BME280_pressure;Samples;Min_cycle;Max_cycle;Signal;HPM_P1;HPM_P2
2021/05/12 10:54:09;;;;;;;112.13;106.93;;;;;;;;;;5090835;27;20602;-66
2021/05/12 10:56:39;;;;;;;132.20;126.25;;;;;;;;;;5090745;28;20191;-67
2021/05/12 10:59:06;;;;;;;151.05;144.20;;;;;;;;;;5090708;28;20274;-67
2021/05/12 11:01:51;;;;;;;162.77;154.50;;;;;;;;;;5089439;28;20574;-67
2021/05/12 11:04:19;;;;;;;146.52;139.95;;;;;;;;;;5090715;28;20523;-68
2021/05/12 11:06:45;;;;;;;166.18;158.52;;;;;;;;;;5090636;28;20167;-67
2021/05/12 11:09:12;;;;;;;161.20;153.85;;;;;;;;;;5090631;28;20171;-67
2021/05/12 11:11:39;;;;;;;182.57;174.30;;;;;;;;;;5090558;28;20172;-66
2021/05/12 11:14:24;;;;;;;153.90;146.80;;;;;;;;;;5090513;28;20742;-67
2021/05/12 11:17:10;;;;;;;147.30;140.63;;;;;;;;;;5089153;28;20168;-66
2021/05/12 11:33:23;;;;;;;150.40;143.60;;;;;;;;;;5090130;28;20246;-74
2021/05/12 11:35:55;;;;;;;154.98;147.90;;;;;;;;;;5088830;28;20192;-72
2021/05/12 11:38:21;;;;;;;146.40;139.85;;;;;;;;;;5088821;28;20225;-72
2021/05/12 11:40:59;;;;;;;146.57;139.98;;;;;;;;;;5089983;28;20168;-72
2021/05/12 11:43:48;;;;;;;137.77;131.52;;;;;;;;;;5089970;28;20172;-71
2021/05/12 11:46:14;;;;;;;130.10;124.22;;;;;;;;;;5089346;28;20192;-72
2021/05/12 11:48:42;;;;;;;142.45;136.00;;;;;;;;;;5089819;28;20246;-71
2021/05/12 11:51:08;;;;;;;128.90;123.03;;;;;;;;;;5088416;28;20514;-72
2021/05/12 11:53:35;;;;;;;134.60;128.45;;;;;;;;;;5089583;28;20215;-72
2021/05/12 11:56:01;;;;;;;131.65;125.75;;;;;;;;;;5088456;28;20175;-75
2021/05/12 11:58:27;;;;;;;125.32;119.65;;;;;;;;;;5089629;28;20552;-73
2021/05/12 12:00:56;;;;;;;126.78;121.07;;;;;;;;;;5089674;28;20170;-70
2021/05/12 12:03:26;;;;;;;134.18;128.15;;;;;;;;;;5088519;28;20168;-70
2021/05/12 12:06:02;;;;;;;157.23;149.85;;;;;;;;;;5075811;28;20625;-70
2021/05/12 12:08:29;;;;;;;141.32;134.98;;;;;;;;;;5076056;28;20222;-70
2021/05/12 12:11:30;;;;;;;130.93;124.97;;;;;;;;;;5075938;28;20570;-72
2021/05/12 12:14:00;;;;;;;119.03;113.65;;;;;;;;;;5074520;28;20276;-72
2021/05/12 12:16:26;;;;;;;130.25;124.32;;;;;;;;;;5075908;28;20172;-72
2021/05/12 12:18:52;;;;;;;126.88;121.22;;;;;;;;;;5075854;28;20179;-69
2021/05/12 12:21:29;;;;;;;125.97;120.35;;;;;;;;;;5075680;28;20276;-70
2021/05/12 12:23:55;;;;;;;130.68;124.75;;;;;;;;;;5075745;28;20178;-72
2021/05/12 12:26:21;;;;;;;130.80;124.95;;;;;;;;;;5075657;28;20171;-72
2021/05/12 12:28:48;;;;;;;139.88;133.52;;;;;;;;;;5075568;28;20157;-72
2021/05/12 12:31:22;;;;;;;141.30;134.90;;;;;;;;;;5075597;28;20192;-72
2021/05/12 12:34:06;;;;;;;140.40;134.02;;;;;;;;;;5074181;28;20539;-71
2021/05/12 13:43:07;;;;;;;90.75;86.45;;;;;;;;;;5090910;28;20533;-71
2021/05/12 13:45:34;;;;;;;110.03;105.05;;;;;;;;;;5090903;28;20168;-72
2021/05/12 13:48:00;;;;;;;112.25;107.25;;;;;;;;;;5090911;28;20164;-72
2021/05/12 13:50:30;;;;;;;114.05;108.80;;;;;;;;;;5090816;28;20579;-70
2021/05/12 14:03:26;;;;;;;127.03;121.28;;;;;;;;;;5090470;28;20198;-72
2021/05/12 14:05:54;;;;;;;142.40;135.88;;;;;;;;;;5090480;28;20168;-72
2021/05/12 14:08:20;;;;;;;142.40;135.88;;;;;;;;;;5090428;28;20565;-71
2021/05/12 14:10:46;;;;;;;158.93;151.02;;;;;;;;;;5089022;28;20194;-72
2021/05/12 14:18:10;;;;;;;182.45;174.02;;;;;;;;;;5090145;28;20192;-72
2021/05/12 14:20:37;;;;;;;197.93;188.90;;;;;;;;;;5090156;28;20225;-72
2021/05/12 14:23:04;;;;;;;209.55;200.07;;;;;;;;;;5090081;28;20168;-71
2021/05/12 14:25:30;;;;;;;235.45;224.65;;;;;;;;;;5090017;28;20203;-67
2021/05/12 14:27:58;;;;;;;266.40;253.68;;;;;;;;;;5090046;28;20168;-68
2021/05/12 14:30:26;;;;;;;299.38;285.45;;;;;;;;;;5089933;28;20168;-67
2021/05/12 14:32:52;;;;;;;333.13;317.40;;;;;;;;;;5089779;28;20202;-67
2021/05/12 14:35:18;;;;;;;357.98;340.92;;;;;;;;;;5089922;28;20254;-67
2021/05/12 14:37:44;;;;;;;362.50;345.15;;;;;;;;;;5089801;28;20174;-68
2021/05/12 14:40:10;;;;;;;378.40;360.23;;;;;;;;;;5089767;28;20667;-67
2021/05/12 14:42:36;;;;;;;391.67;372.38;;;;;;;;;;5088277;28;20688;-68
2021/05/12 14:45:02;;;;;;;398.42;378.67;;;;;;;;;;5089583;28;20178;-68
2021/05/12 14:47:28;;;;;;;404.58;384.50;;;;;;;;;;5089650;28;20171;-68
2021/05/12 14:49:55;;;;;;;380.83;362.60;;;;;;;;;;5089594;28;20171;-68
2021/05/12 14:52:34;;;;;;;401.45;382.00;;;;;;;;;;5088106;28;20276;-68
2021/05/12 14:55:11;;;;;;;384.08;365.70;;;;;;;;;;5076003;28;20171;-68
2021/05/12 15:08:21;;;;;;;414.92;393.92;;;;;;;;;;5073780;28;20183;-68
2021/05/12 15:10:47;;;;;;;417.27;396.50;;;;;;;;;;5075697;28;20243;-67
2021/05/12 15:13:13;;;;;;;417.63;396.90;;;;;;;;;;5075742;28;20255;-71
2021/05/12 15:15:39;;;;;;;413.90;393.45;;;;;;;;;;5075732;28;20638;-72
2021/05/12 15:18:06;;;;;;;405.63;385.55;;;;;;;;;;5075696;28;20256;-71
2021/05/12 15:20:32;;;;;;;395.45;376.05;;;;;;;;;;5075923;28;20164;-72
2021/05/12 15:22:58;;;;;;;396.45;377.08;;;;;;;;;;5075532;28;20259;-72
2021/05/12 15:25:25;;;;;;;385.52;366.92;;;;;;;;;;5075519;28;20181;-72
2021/05/12 15:27:51;;;;;;;375.20;357.08;;;;;;;;;;5075459;28;20194;-71
2021/05/12 15:30:18;;;;;;;368.13;350.42;;;;;;;;;;5074104;28;20172;-71
2021/05/12 15:32:45;;;;;;;379.88;361.42;;;;;;;;;;5075350;28;20267;-72
2021/05/12 15:35:11;;;;;;;380.50;362.17;;;;;;;;;;5075356;28;20263;-71
2021/05/12 15:37:37;;;;;;;372.10;354.25;;;;;;;;;;5075348;28;20165;-72
2021/05/12 15:40:03;;;;;;;380.75;362.48;;;;;;;;;;5075273;28;20169;-72
2021/05/12 15:42:29;;;;;;;395.25;375.65;;;;;;;;;;5075072;28;20720;-72
2021/05/12 15:44:57;;;;;;;378.65;360.35;;;;;;;;;;5075164;28;20211;-72
2021/05/12 15:47:25;;;;;;;379.70;360.90;;;;;;;;;;5075009;28;20176;-72
2021/05/12 15:49:51;;;;;;;381.02;362.55;;;;;;;;;;5075113;28;20519;-72
2021/05/12 15:52:17;;;;;;;386.13;367.05;;;;;;;;;;5074855;28;20253;-72
2021/05/12 15:54:43;;;;;;;389.15;370.15;;;;;;;;;;5075000;28;20166;-72
2021/05/12 15:57:09;;;;;;;416.27;395.75;;;;;;;;;;5074882;28;20247;-72
2021/05/12 15:59:35;;;;;;;391.42;372.55;;;;;;;;;;5073622;28;20584;-72
2021/05/12 16:02:01;;;;;;;395.33;376.17;;;;;;;;;;5074765;28;20178;-72
2021/05/12 16:04:27;;;;;;;397.38;378.20;;;;;;;;;;5074016;28;20180;-72
2021/05/12 16:06:53;;;;;;;388.45;369.90;;;;;;;;;;5074554;28;20175;-72
2021/05/12 16:09:20;;;;;;;406.92;387.35;;;;;;;;;;5074667;28;20232;-72
2021/05/12 16:11:46;;;;;;;408.35;388.65;;;;;;;;;;5074613;28;20542;-72
2021/05/12 16:14:12;;;;;;;408.35;388.77;;;;;;;;;;5074618;28;20681;-72
2021/05/12 16:16:47;;;;;;;425.48;404.88;;;;;;;;;;5074443;28;20164;-72
2021/05/12 16:19:13;;;;;;;416.85;396.80;;;;;;;;;;5074488;28;20159;-72
2021/05/12 16:21:39;;;;;;;439.25;417.90;;;;;;;;;;5074388;28;20417;-72
2021/05/12 16:24:06;;;;;;;416.80;396.90;;;;;;;;;;5074314;28;20171;-72
2021/05/12 16:26:32;;;;;;;412.60;392.92;;;;;;;;;;5074284;28;20172;-72
2021/05/12 16:28:58;;;;;;;440.30;418.95;;;;;;;;;;5074214;28;20182;-72
2021/05/12 16:31:24;;;;;;;440.15;418.55;;;;;;;;;;5074156;28;20345;-72
2021/05/12 16:33:50;;;;;;;436.00;414.70;;;;;;;;;;5074159;28;20633;-72
2021/05/12 16:36:16;;;;;;;409.33;389.65;;;;;;;;;;5074092;28;20171;-72
2021/05/12 16:38:44;;;;;;;402.55;383.05;;;;;;;;;;5074043;28;20168;-72
2021/05/12 16:41:10;;;;;;;408.02;388.42;;;;;;;;;;5073780;28;20222;-72
2021/05/12 16:43:36;;;;;;;406.60;387.15;;;;;;;;;;5073972;28;20172;-72
2021/05/12 16:46:02;;;;;;;395.80;377.02;;;;;;;;;;5073794;28;20179;-71
2021/05/12 16:48:28;;;;;;;402.42;383.00;;;;;;;;;;5073924;28;20532;-71
2021/05/12 16:50:58;;;;;;;402.33;383.08;;;;;;;;;;5073645;28;20247;-71
2021/05/12 16:53:24;;;;;;;390.10;371.70;;;;;;;;;;5073759;28;20196;-70
2021/05/12 16:55:50;;;;;;;386.38;368.13;;;;;;;;;;5073687;28;20172;-70
2021/05/12 16:58:16;;;;;;;391.95;373.40;;;;;;;;;;5073448;28;20173;-70
2021/05/12 17:00:42;;;;;;;329.92;314.77;;;;;;;;;;5072335;28;20179;-70
2021/05/12 17:03:08;;;;;;;349.27;332.77;;;;;;;;;;5074436;28;20720;-70
2021/05/12 17:05:34;;;;;;;393.33;374.77;;;;;;;;;;5073789;28;20246;-71
2021/05/12 17:08:08;;;;;;;348.35;332.30;;;;;;;;;;5073655;28;20176;-70
2021/05/12 17:10:35;;;;;;;320.33;305.73;;;;;;;;;;5073500;28;20168;-70
2021/05/12 17:13:03;;;;;;;380.55;362.67;;;;;;;;;;5073381;28;20200;-70
2021/05/12 17:15:29;;;;;;;359.50;342.80;;;;;;;;;;5072178;28;20195;-71
